Time;durP1;ratioP1;P1;durP2;ratioP2;P2;SDS_P1;SDS_P2;PMS_P1;PMS_P2;Temp;Humidity;BMP_temperature;BMP_pressure;BME280_temperature;BME280_humidity;BME280_pressure;Samples;Min_cycle;Max_cycle;Signal;HPM_P1;HPM_P2
2021/11/11 00:00:36;;;;;;;2.13;1.05;;;5.30;90.80;;;;;;5042130;28;20454;-80
2021/11/11 00:03:03;;;;;;;1.33;1.00;;;5.30;90.80;;;;;;5057695;28;20490;-79
2021/11/11 00:05:29;;;;;;;1.80;1.10;;;5.30;90.80;;;;;;5061220;28;20182;-80
2021/11/11 00:07:55;;;;;;;1.92;1.08;;;5.30;90.80;;;;;;5076045;28;20422;-82
2021/11/11 00:10:22;;;;;;;1.90;1.10;;;5.30;90.90;;;;;;5042968;28;20490;-80
2021/11/11 00:12:49;;;;;;;1.60;1.05;;;5.20;90.80;;;;;;5059041;28;20048;-80
2021/11/11 00:15:16;;;;;;;1.95;1.05;;;5.30;90.90;;;;;;5040549;28;20040;-79
2021/11/11 00:17:43;;;;;;;2.15;1.48;;;5.30;90.90;;;;;;5091389;28;20039;-79
2021/11/11 00:20:11;;;;;;;2.42;1.30;;;5.20;90.90;;;;;;5098014;28;20451;-80
2021/11/11 00:22:39;;;;;;;2.53;1.33;;;5.10;90.90;;;;;;5112970;28;20118;-79
2021/11/11 00:25:05;;;;;;;2.08;1.17;;;5.10;90.90;;;;;;5095003;28;20500;-80
2021/11/11 00:27:32;;;;;;;1.90;1.20;;;5.10;90.90;;;;;;5078008;28;20093;-79
2021/11/11 00:29:58;;;;;;;2.58;1.40;;;5.10;90.90;;;;;;5094940;28;20047;-81
2021/11/11 00:32:24;;;;;;;1.60;1.17;;;5.00;90.90;;;;;;5118579;28;20040;-81
2021/11/11 00:34:52;;;;;;;2.88;1.38;;;5.00;90.90;;;;;;5113292;28;20063;-80
2021/11/11 00:37:19;;;;;;;2.28;1.30;;;5.00;91.00;;;;;;5113034;28;20119;-79
2021/11/11 00:39:45;;;;;;;2.35;1.17;;;4.90;91.00;;;;;;5114164;28;20473;-78
2021/11/11 00:42:18;;;;;;;1.88;1.10;;;4.90;91.00;;;;;;5113807;28;20126;-84
2021/11/11 00:44:49;;;;;;;2.17;1.00;;;4.90;91.10;;;;;;5083259;28;20453;-82
2021/11/11 00:50:40;;;;;;;3.75;1.65;;;4.90;91.00;;;;;;5009542;28;20052;-82
2021/11/11 00:53:07;;;;;;;1.98;1.05;;;4.80;91.00;;;;;;4995343;28;20053;-83
2021/11/11 00:55:37;;;;;;;2.22;1.38;;;4.90;91.00;;;;;;4980735;28;20046;-83
2021/11/11 00:58:08;;;;;;;1.97;1.20;;;4.80;90.90;;;;;;4978852;28;20137;-85
2021/11/11 01:00:37;;;;;;;2.03;1.10;;;4.80;91.00;;;;;;4939870;28;20073;-83
2021/11/11 01:03:06;;;;;;;1.38;1.02;;;4.70;91.00;;;;;;4956739;28;20043;-84
2021/11/11 01:05:36;;;;;;;3.33;1.20;;;4.80;91.00;;;;;;4992750;28;20120;-82
2021/11/11 01:08:03;;;;;;;1.45;1.10;;;4.70;91.00;;;;;;4990600;28;20066;-82
2021/11/11 01:10:28;;;;;;;1.33;0.88;;;4.70;91.00;;;;;;4977632;28;20112;-82
2021/11/11 01:12:58;;;;;;;1.73;1.10;;;4.70;91.00;;;;;;4977446;28;20042;-82
2021/11/11 01:15:30;;;;;;;2.03;1.00;;;4.70;91.00;;;;;;4993870;28;20054;-82
2021/11/11 01:18:06;;;;;;;1.65;1.10;;;4.70;91.00;;;;;;4991470;28;20129;-82
2021/11/11 01:20:33;;;;;;;1.45;1.10;;;4.70;90.90;;;;;;4975101;28;20042;-83
2021/11/11 01:22:59;;;;;;;1.92;1.20;;;4.70;90.90;;;;;;4974678;28;20038;-83
2021/11/11 01:25:29;;;;;;;1.77;1.00;;;4.80;91.00;;;;;;4991451;28;20106;-83
2021/11/11 01:28:28;;;;;;;1.98;1.13;;;4.80;91.00;;;;;;5055533;28;20052;-82
2021/11/11 01:30:54;;;;;;;1.70;1.05;;;4.70;91.00;;;;;;5041411;28;20039;-81
2021/11/11 01:33:29;;;;;;;2.40;1.30;;;4.70;90.90;;;;;;4993998;28;20042;-82
2021/11/11 01:35:59;;;;;;;1.85;1.00;;;4.70;90.90;;;;;;4994165;28;20146;-83
2021/11/11 01:38:25;;;;;;;1.83;1.13;;;4.80;90.90;;;;;;4921123;29;20047;-80
2021/11/11 01:40:52;;;;;;;1.52;0.90;;;4.80;90.90;;;;;;4936522;29;20095;-81
2021/11/11 01:43:18;;;;;;;1.30;0.90;;;4.80;90.90;;;;;;4934635;29;20529;-81
2021/11/11 01:45:44;;;;;;;1.55;0.95;;;4.90;90.90;;;;;;4916698;29;20121;-81
2021/11/11 01:48:14;;;;;;;1.27;0.90;;;4.90;90.80;;;;;;4886347;29;20047;-84
2021/11/11 01:50:41;;;;;;;3.22;1.52;;;5.00;90.80;;;;;;4932594;29;20040;-82
2021/11/11 01:53:09;;;;;;;2.17;1.20;;;5.00;90.80;;;;;;4885212;29;20047;-83
2021/11/11 01:55:37;;;;;;;3.72;1.55;;;5.00;90.80;;;;;;4935601;29;20510;-81
2021/11/11 02:09:53;;;;;;;4.80;1.80;;;5.30;90.60;;;;;;4919570;29;20075;-87
2021/11/11 02:12:24;;;;;;;1.58;1.10;;;5.30;90.50;;;;;;4941285;28;20129;-84
2021/11/11 02:14:50;;;;;;;2.65;1.42;;;5.40;90.50;;;;;;4940793;28;20043;-80
2021/11/11 02:17:25;;;;;;;3.30;1.50;;;5.40;90.40;;;;;;4956195;28;20083;-81
2021/11/11 02:20:10;;;;;;;2.38;1.38;;;5.50;90.50;;;;;;4940303;28;20045;-80
2021/11/11 02:22:37;;;;;;;3.30;1.80;;;5.50;90.50;;;;;;4957457;28;20043;-83
2021/11/11 02:25:09;;;;;;;2.97;1.60;;;5.40;90.40;;;;;;4956425;28;20050;-81
2021/11/11 02:27:35;;;;;;;;;;;5.50;90.40;;;;;;4956609;28;20080;-82
2021/11/11 02:30:00;;;;;;;2.08;1.13;;;5.50;90.40;;;;;;4973407;28;20295;-80
2021/11/11 02:32:31;;;;;;;2.80;1.30;;;5.50;90.40;;;;;;4962347;28;20065;-80
2021/11/11 02:34:57;;;;;;;1.70;1.15;;;5.60;90.40;;;;;;4996299;28;20049;-80
2021/11/11 02:37:27;;;;;;;1.95;1.15;;;5.50;90.40;;;;;;4980421;28;20499;-80
2021/11/11 02:39:53;;;;;;;3.42;1.25;;;5.60;90.40;;;;;;5043894;28;20126;-79
2021/11/11 02:42:19;;;;;;;2.45;1.10;;;5.60;90.40;;;;;;5097389;28;20043;-80
2021/11/11 02:44:45;;;;;;;2.70;1.38;;;5.60;90.40;;;;;;5101554;28;20044;-79
2021/11/11 02:47:15;;;;;;;2.85;1.35;;;5.60;90.40;;;;;;5096444;28;20550;-80
2021/11/11 02:49:40;;;;;;;2.90;1.50;;;5.70;90.50;;;;;;5114727;28;20051;-80
2021/11/11 02:52:07;;;;;;;2.30;1.42;;;5.70;90.50;;;;;;5096585;28;20048;-80
2021/11/11 02:54:37;;;;;;;2.28;1.17;;;5.70;90.50;;;;;;5096200;28;20035;-80
2021/11/11 02:57:03;;;;;;;1.67;1.17;;;5.70;90.50;;;;;;5079726;28;20172;-80
2021/11/11 02:59:34;;;;;;;1.55;1.05;;;5.80;90.50;;;;;;5081422;28;20046;-80
2021/11/11 03:01:59;;;;;;;1.75;1.15;;;5.80;90.50;;;;;;5096712;28;20080;-80
2021/11/11 03:04:25;;;;;;;2.58;1.40;;;5.80;90.50;;;;;;5096361;28;20043;-80
2021/11/11 03:06:51;;;;;;;1.98;1.17;;;5.80;90.50;;;;;;5113916;28;20102;-79
2021/11/11 03:09:17;;;;;;;2.80;1.42;;;5.80;90.50;;;;;;5079205;28;20130;-80
2021/11/11 03:11:42;;;;;;;2.67;1.50;;;5.90;90.50;;;;;;5079755;28;20435;-80
2021/11/11 03:14:08;;;;;;;2.50;1.33;;;5.90;90.50;;;;;;5096160;28;20043;-80
2021/11/11 03:16:34;;;;;;;2.25;1.40;;;5.90;90.50;;;;;;5096164;28;20096;-80
2021/11/11 03:19:00;;;;;;;3.22;1.58;;;5.90;90.50;;;;;;5096647;28;20036;-79
2021/11/11 03:21:26;;;;;;;2.38;1.30;;;5.90;90.50;;;;;;5095980;28;20035;-79
2021/11/11 03:23:52;;;;;;;3.15;1.40;;;5.90;90.50;;;;;;5096599;28;20038;-80
2021/11/11 03:26:19;;;;;;;3.72;1.80;;;5.90;90.50;;;;;;5096566;28;20404;-79
2021/11/11 03:28:45;;;;;;;1.95;1.30;;;5.90;90.60;;;;;;5096282;28;20492;-80
2021/11/11 03:31:11;;;;;;;2.53;1.60;;;5.80;90.60;;;;;;5115974;28;20039;-80
2021/11/11 03:33:36;;;;;;;2.67;1.23;;;5.90;90.70;;;;;;5095892;28;20493;-80
2021/11/11 03:36:02;;;;;;;3.58;1.63;;;5.80;90.70;;;;;;5115820;28;20036;-80
2021/11/11 03:38:29;;;;;;;2.53;1.20;;;5.80;90.70;;;;;;5096032;28;20479;-80
2021/11/11 03:40:55;;;;;;;3.03;1.40;;;5.70;90.70;;;;;;5081446;28;20504;-80
2021/11/11 03:43:21;;;;;;;2.53;1.20;;;5.80;90.80;;;;;;5079021;28;20089;-80
2021/11/11 03:45:47;;;;;;;2.53;0.98;;;5.70;90.80;;;;;;5095726;28;20139;-80
2021/11/11 03:48:13;;;;;;;2.55;1.30;;;5.70;90.80;;;;;;5078753;28;20040;-80
2021/11/11 03:50:38;;;;;;;2.55;1.30;;;5.70;90.80;;;;;;5078663;28;20044;-80
2021/11/11 03:53:04;;;;;;;4.35;1.88;;;5.70;90.90;;;;;;5113517;28;20036;-80
2021/11/11 03:55:30;;;;;;;4.88;1.65;;;5.60;90.90;;;;;;5113651;28;20139;-80
2021/11/11 03:57:57;;;;;;;3.25;1.30;;;5.80;91.00;;;;;;5076460;28;20115;-79
2021/11/11 04:00:24;;;;;;;1.83;1.25;;;5.60;90.90;;;;;;5079057;28;20038;-80
2021/11/11 04:02:50;;;;;;;2.30;1.30;;;5.60;90.90;;;;;;5113703;28;20097;-79
2021/11/11 04:05:16;;;;;;;2.53;1.20;;;5.60;90.90;;;;;;5113728;28;20039;-79
2021/11/11 04:07:42;;;;;;;2.50;1.40;;;5.50;90.90;;;;;;5113478;28;20067;-80
2021/11/11 04:10:09;;;;;;;3.38;1.15;;;5.60;90.90;;;;;;5113491;28;20567;-80
2021/11/11 04:12:35;;;;;;;2.55;1.30;;;5.50;90.90;;;;;;5078363;28;20040;-80
2021/11/11 04:15:01;;;;;;;2.05;1.38;;;5.50;91.00;;;;;;5080249;28;20043;-80
2021/11/11 04:17:27;;;;;;;2.45;1.30;;;5.60;90.90;;;;;;5095431;28;20058;-80
2021/11/11 04:19:52;;;;;;;1.25;1.00;;;5.60;90.90;;;;;;5113252;28;20039;-80
2021/11/11 04:22:19;;;;;;;1.98;1.17;;;5.50;90.90;;;;;;5095514;28;20040;-80
2021/11/11 04:24:46;;;;;;;3.33;1.35;;;5.60;90.90;;;;;;5076482;28;20040;-79
2021/11/11 04:27:19;;;;;;;2.47;1.27;;;5.60;90.90;;;;;;5118858;28;20028;-79
2021/11/11 04:29:56;;;;;;;2.17;1.38;;;5.60;90.90;;;;;;5079658;28;20085;-80
2021/11/11 04:32:23;;;;;;;2.22;1.30;;;5.60;90.90;;;;;;5096619;28;20131;-80
2021/11/11 04:34:55;;;;;;;1.95;1.30;;;5.70;91.00;;;;;;5078369;28;20418;-80
2021/11/11 04:37:27;;;;;;;2.97;1.40;;;5.60;90.90;;;;;;5113254;28;20038;-79
2021/11/11 04:40:21;;;;;;;2.28;1.35;;;5.70;90.90;;;;;;5079300;28;20118;-80
2021/11/11 05:01:28;;;;;;;1.58;1.25;;;5.90;90.80;;;;;;5098896;28;20087;-80
2021/11/11 05:03:54;;;;;;;2.13;1.30;;;5.90;90.80;;;;;;5113186;28;20043;-79
2021/11/11 05:06:20;;;;;;;2.25;1.38;;;5.90;90.80;;;;;;5077983;28;20557;-80
2021/11/11 05:08:45;;;;;;;1.92;1.30;;;6.00;90.80;;;;;;5062765;28;20036;-80
2021/11/11 05:11:11;;;;;;;4.18;1.55;;;6.00;90.80;;;;;;5094648;28;20035;-80
2021/11/11 05:13:37;;;;;;;2.20;1.30;;;6.00;90.80;;;;;;5076685;28;20159;-80
2021/11/11 05:16:04;;;;;;;3.58;1.55;;;6.00;90.80;;;;;;5113098;28;20401;-80
2021/11/11 05:18:30;;;;;;;2.80;1.17;;;6.00;90.80;;;;;;5094539;28;20127;-80
2021/11/11 05:20:56;;;;;;;4.40;1.75;;;6.10;90.80;;;;;;5079274;28;20059;-80
2021/11/11 05:23:22;;;;;;;2.45;1.33;;;6.00;90.70;;;;;;5094650;28;20031;-80
2021/11/11 05:25:49;;;;;;;3.50;1.90;;;6.10;90.70;;;;;;5094363;28;20047;-80
2021/11/11 05:28:15;;;;;;;3.92;1.80;;;6.10;90.70;;;;;;5113642;28;20105;-80
2021/11/11 05:30:41;;;;;;;3.08;1.80;;;6.10;90.70;;;;;;5094972;28;20047;-80
2021/11/11 05:33:07;;;;;;;2.25;1.40;;;6.10;90.70;;;;;;5116732;28;20040;-81
2021/11/11 05:35:33;;;;;;;3.58;1.40;;;6.20;90.70;;;;;;5098188;28;20040;-80
2021/11/11 05:37:59;;;;;;;3.58;1.70;;;6.20;90.80;;;;;;5116079;28;20074;-80
2021/11/11 05:40:26;;;;;;;2.20;1.20;;;6.10;90.70;;;;;;5097918;28;20035;-80
2021/11/11 05:42:52;;;;;;;2.72;1.30;;;6.20;90.70;;;;;;5095949;28;20047;-79
2021/11/11 05:45:18;;;;;;;3.05;1.70;;;6.20;90.70;;;;;;5080795;28;20035;-80
2021/11/11 05:47:45;;;;;;;2.88;1.48;;;6.20;90.80;;;;;;5097701;28;20127;-80
2021/11/11 05:50:12;;;;;;;2.85;1.55;;;6.30;90.80;;;;;;5117751;28;20039;-79
2021/11/11 05:52:38;;;;;;;3.15;1.70;;;6.30;90.70;;;;;;5099531;28;20118;-80
2021/11/11 05:55:06;;;;;;;2.72;1.50;;;6.30;90.70;;;;;;5080680;28;20449;-80
2021/11/11 05:57:32;;;;;;;2.45;1.52;;;6.30;90.80;;;;;;5080464;28;20043;-79
2021/11/11 05:59:58;;;;;;;3.45;1.70;;;6.30;90.80;;;;;;5115682;28;20067;-80
2021/11/11 06:02:24;;;;;;;3.63;1.60;;;6.40;90.80;;;;;;5115738;28;20434;-79
2021/11/11 06:04:50;;;;;;;3.22;1.63;;;6.30;90.80;;;;;;5116124;28;20422;-79
2021/11/11 06:07:15;;;;;;;4.15;2.03;;;6.40;90.80;;;;;;5063628;28;20046;-79
2021/11/11 06:09:41;;;;;;;3.95;2.05;;;6.30;90.70;;;;;;5082085;28;20040;-79
2021/11/11 06:12:07;;;;;;;3.45;1.80;;;6.40;90.80;;;;;;5097893;28;20063;-80
2021/11/11 06:14:33;;;;;;;3.72;2.30;;;6.40;90.80;;;;;;5116018;28;20106;-80
2021/11/11 06:17:00;;;;;;;3.35;1.77;;;6.50;90.80;;;;;;5081017;28;20047;-80
2021/11/11 06:19:27;;;;;;;2.67;1.70;;;6.50;90.80;;;;;;5098318;28;20040;-80
2021/11/11 06:21:54;;;;;;;2.42;1.38;;;6.50;90.80;;;;;;5064570;28;20377;-80
2021/11/11 06:24:20;;;;;;;2.45;1.48;;;6.50;90.80;;;;;;5080529;28;20127;-79
2021/11/11 06:26:46;;;;;;;3.00;1.42;;;6.50;90.80;;;;;;5097914;28;20093;-80
2021/11/11 06:29:12;;;;;;;2.47;1.30;;;6.50;90.80;;;;;;5080441;28;20035;-80
2021/11/11 06:31:38;;;;;;;2.78;1.40;;;6.60;90.80;;;;;;5115367;28;20036;-79
2021/11/11 06:34:04;;;;;;;3.63;1.50;;;6.50;90.80;;;;;;5115341;28;20035;-80
2021/11/11 06:36:29;;;;;;;2.53;1.60;;;6.50;90.80;;;;;;5115191;28;20043;-80
2021/11/11 06:38:55;;;;;;;1.98;1.10;;;6.60;90.80;;;;;;5115214;28;20031;-80
2021/11/11 06:41:21;;;;;;;2.95;1.50;;;6.60;90.80;;;;;;5096966;28;20040;-79
2021/11/11 06:43:47;;;;;;;3.47;1.70;;;6.50;90.80;;;;;;5096807;28;20032;-80
2021/11/11 06:46:14;;;;;;;3.13;1.70;;;6.60;90.80;;;;;;5080155;28;20048;-80
2021/11/11 06:48:40;;;;;;;3.53;1.80;;;6.50;90.80;;;;;;5099003;28;20044;-79
2021/11/11 06:51:06;;;;;;;4.30;1.48;;;6.50;90.80;;;;;;5098347;28;20043;-79
2021/11/11 06:53:32;;;;;;;3.35;1.48;;;6.60;90.90;;;;;;5096865;28;20043;-79
2021/11/11 06:55:58;;;;;;;2.60;1.15;;;6.50;90.90;;;;;;5080215;28;20043;-79
2021/11/11 06:58:24;;;;;;;3.83;1.70;;;6.60;90.90;;;;;;5062969;28;20135;-80
2021/11/11 07:00:54;;;;;;;3.40;1.45;;;6.60;91.10;;;;;;5080127;28;20177;-79
2021/11/11 07:03:20;;;;;;;2.55;1.33;;;6.60;90.80;;;;;;5114657;28;20043;-79
2021/11/11 07:05:46;;;;;;;1.95;1.33;;;6.60;90.80;;;;;;5079618;28;20047;-83
2021/11/11 07:08:13;;;;;;;2.97;1.50;;;6.60;90.80;;;;;;5079723;28;20135;-84
2021/11/11 07:10:41;;;;;;;2.50;1.40;;;6.60;90.80;;;;;;5096821;28;20046;-83
2021/11/11 07:13:07;;;;;;;2.50;1.38;;;6.60;90.80;;;;;;5114456;28;20040;-83
2021/11/11 07:15:33;;;;;;;3.05;1.60;;;6.60;90.80;;;;;;5114765;28;20054;-84
2021/11/11 07:18:00;;;;;;;3.70;1.73;;;6.70;90.80;;;;;;5096591;28;20032;-84
2021/11/11 07:20:26;;;;;;;2.38;1.45;;;6.70;90.80;;;;;;5063087;28;20049;-84
2021/11/11 07:22:54;;;;;;;3.10;1.45;;;6.70;90.80;;;;;;5114263;28;20540;-83
2021/11/11 07:25:22;;;;;;;2.03;1.25;;;6.80;90.80;;;;;;5098225;28;20032;-84
2021/11/11 07:27:49;;;;;;;2.22;1.40;;;6.80;90.80;;;;;;5096579;28;20043;-84
2021/11/11 07:30:17;;;;;;;4.70;1.90;;;6.80;90.80;;;;;;5062636;28;20472;-84
2021/11/11 07:32:43;;;;;;;2.80;1.70;;;6.80;90.80;;;;;;5095977;28;20055;-84
2021/11/11 07:35:10;;;;;;;3.25;1.58;;;6.80;90.80;;;;;;5096219;28;20071;-84
2021/11/11 07:37:39;;;;;;;2.58;1.60;;;6.70;90.80;;;;;;5079578;28;20042;-82
2021/11/11 07:40:06;;;;;;;2.67;1.70;;;6.70;90.90;;;;;;5078971;28;20086;-83
2021/11/11 07:42:32;;;;;;;4.65;2.20;;;6.70;90.90;;;;;;5096020;28;20043;-83
2021/11/11 07:44:57;;;;;;;3.95;2.13;;;6.70;90.90;;;;;;5079404;28;20047;-83
2021/11/11 07:47:28;;;;;;;4.03;1.70;;;6.80;90.90;;;;;;5114606;28;20051;-83
2021/11/11 07:49:57;;;;;;;3.45;1.88;;;6.70;90.90;;;;;;5094594;28;20040;-83
2021/11/11 07:52:25;;;;;;;5.28;2.20;;;6.80;90.90;;;;;;5096727;28;20126;-83
2021/11/11 07:55:03;;;;;;;2.67;1.65;;;6.80;90.90;;;;;;5076804;28;20130;-83
2021/11/11 07:57:32;;;;;;;2.75;1.58;;;6.90;90.90;;;;;;5039032;28;20048;-82
2021/11/11 07:59:58;;;;;;;3.45;1.70;;;7.00;90.90;;;;;;5054987;28;20036;-82
2021/11/11 08:02:24;;;;;;;2.67;1.60;;;7.00;90.80;;;;;;5071657;28;20038;-81
2021/11/11 08:04:52;;;;;;;2.22;1.50;;;6.90;90.80;;;;;;5054455;28;20132;-80
2021/11/11 08:07:18;;;;;;;3.20;1.55;;;6.90;90.80;;;;;;5038228;28;20071;-82
2021/11/11 08:09:45;;;;;;;2.88;1.70;;;7.10;90.80;;;;;;5071142;28;20048;-82
2021/11/11 08:12:11;;;;;;;4.45;2.15;;;7.10;90.80;;;;;;5037702;28;20143;-82
2021/11/11 08:14:37;;;;;;;3.22;1.83;;;7.10;90.70;;;;;;5037528;28;20049;-82
2021/11/11 08:17:03;;;;;;;3.45;1.70;;;7.10;90.70;;;;;;5038014;28;20043;-82
2021/11/11 08:19:29;;;;;;;2.05;1.45;;;7.20;90.70;;;;;;5054092;28;20098;-82
2021/11/11 08:21:55;;;;;;;4.40;1.80;;;7.20;90.70;;;;;;5021130;28;20044;-82
2021/11/11 08:24:46;;;;;;;2.83;1.40;;;7.20;90.70;;;;;;5040845;28;20163;-87
2021/11/11 08:27:14;;;;;;;2.88;1.50;;;7.20;90.70;;;;;;5054346;28;20032;-80
2021/11/11 08:29:40;;;;;;;3.65;2.08;;;7.20;90.70;;;;;;5113437;28;20065;-78
2021/11/11 08:32:07;;;;;;;2.75;1.58;;;7.30;90.70;;;;;;5113819;28;20035;-84
2021/11/11 08:34:56;;;;;;;3.00;1.73;;;7.30;90.70;;;;;;5080583;28;20044;-86
2021/11/11 08:37:22;;;;;;;3.78;1.77;;;7.20;90.70;;;;;;5102776;28;20481;-82
2021/11/11 08:39:48;;;;;;;3.47;1.60;;;7.10;90.70;;;;;;5098230;28;20076;-84
2021/11/11 08:42:16;;;;;;;2.92;1.52;;;7.20;90.80;;;;;;5079070;28;20048;-83
2021/11/11 08:45:10;;;;;;;4.13;2.20;;;7.30;90.70;;;;;;5099610;28;20043;-89
2021/11/11 08:47:54;;;;;;;5.57;2.20;;;7.40;90.70;;;;;;5115632;28;20047;-86
2021/11/11 08:54:20;;;;;;;4.70;1.85;;;7.40;90.70;;;;;;4973101;28;20086;-85
2021/11/11 08:57:14;;;;;;;3.75;2.00;;;7.40;90.60;;;;;;4956959;28;20045;-86
2021/11/11 08:59:40;;;;;;;4.22;2.00;;;7.30;90.70;;;;;;4924841;29;20043;-86
2021/11/11 09:02:09;;;;;;;4.95;1.85;;;7.40;90.70;;;;;;4920139;29;20048;-82
2021/11/11 09:04:35;;;;;;;5.35;2.47;;;7.40;90.70;;;;;;4922147;29;20585;-83
2021/11/11 09:07:14;;;;;;;5.68;2.63;;;7.50;90.70;;;;;;4908798;29;20052;-85
2021/11/11 09:09:42;;;;;;;4.72;2.30;;;7.50;90.70;;;;;;4922687;29;20059;-79
2021/11/11 09:12:09;;;;;;;4.45;2.15;;;7.50;90.60;;;;;;4934561;29;20039;-80
2021/11/11 09:14:35;;;;;;;4.65;2.40;;;7.50;90.70;;;;;;4918809;29;20056;-81
2021/11/11 09:17:01;;;;;;;5.97;2.17;;;7.50;90.70;;;;;;4918163;29;20050;-81
2021/11/11 09:19:26;;;;;;;4.50;2.20;;;7.50;90.60;;;;;;4933308;29;20126;-83
2021/11/11 09:33:14;;;;;;;4.30;2.00;;;7.70;90.50;;;;;;4950810;29;20532;-83
2021/11/11 09:35:40;;;;;;;5.13;2.20;;;7.70;90.40;;;;;;4958082;28;20047;-80
2021/11/11 09:38:38;;;;;;;6.10;2.83;;;7.70;90.40;;;;;;4956304;28;20512;-82
2021/11/11 09:44:09;;;;;;;5.45;2.60;;;7.70;90.30;;;;;;4916566;29;20032;-81
2021/11/11 09:46:35;;;;;;;6.43;2.58;;;7.70;90.40;;;;;;4921677;29;20035;-82
2021/11/11 09:49:02;;;;;;;5.60;3.13;;;7.70;90.60;;;;;;4932465;29;20589;-82
2021/11/11 09:51:28;;;;;;;6.10;2.60;;;7.70;90.30;;;;;;4932421;29;20051;-82
2021/11/11 09:54:04;;;;;;;6.53;3.15;;;7.70;90.30;;;;;;4934667;29;20063;-82
2021/11/11 09:59:07;;;;;;;7.25;3.45;;;7.90;90.30;;;;;;4932657;29;20394;-81
2021/11/11 10:01:33;;;;;;;5.13;2.85;;;7.80;90.20;;;;;;4945640;28;20041;-82
2021/11/11 10:03:58;;;;;;;6.20;2.70;;;7.90;90.30;;;;;;4987687;28;20057;-82
2021/11/11 10:06:27;;;;;;;4.82;2.72;;;7.90;90.30;;;;;;4993863;28;20508;-81
2021/11/11 10:08:56;;;;;;;5.75;3.00;;;8.00;90.20;;;;;;5024079;28;20127;-81
2021/11/11 10:11:32;;;;;;;5.60;2.80;;;8.00;90.20;;;;;;5008508;28;20056;-83
2021/11/11 10:14:06;;;;;;;4.93;2.50;;;8.10;90.20;;;;;;5012959;28;20148;-83
2021/11/11 10:16:44;;;;;;;7.57;3.00;;;8.20;90.20;;;;;;5035061;28;20043;-83
2021/11/11 10:19:11;;;;;;;6.05;2.83;;;8.20;90.10;;;;;;5044219;28;20437;-83
2021/11/11 10:21:47;;;;;;;4.53;2.40;;;8.30;90.00;;;;;;5039486;28;20346;-83
2021/11/11 10:24:20;;;;;;;5.13;2.40;;;8.40;90.00;;;;;;5055809;28;20092;-82
2021/11/11 10:27:27;;;;;;;4.40;2.85;;;8.40;90.00;;;;;;5075549;28;20074;-81
2021/11/11 10:30:04;;;;;;;4.78;2.30;;;8.40;90.00;;;;;;5055881;28;20040;-86
2021/11/11 10:32:35;;;;;;;6.28;2.60;;;8.60;90.10;;;;;;5040453;28;20106;-82
2021/11/11 10:35:15;;;;;;;;;;;8.50;90.00;;;;;;5043009;28;20537;-84
2021/11/11 10:37:51;;;;;;;5.60;2.55;;;8.60;90.00;;;;;;5073112;28;19981;-82
2021/11/11 10:40:21;;;;;;;2.97;1.83;;;8.60;89.90;;;;;;5041195;28;20120;-82
2021/11/11 10:42:49;;;;;;;3.85;1.80;;;8.60;89.90;;;;;;5074298;28;20076;-84
2021/11/11 10:45:22;;;;;;;4.18;2.30;;;8.80;90.00;;;;;;5038671;28;20056;-85
2021/11/11 10:47:50;;;;;;;4.57;2.35;;;8.70;89.90;;;;;;5024045;28;20505;-82
2021/11/11 10:50:20;;;;;;;5.90;2.67;;;8.80;89.90;;;;;;5080055;28;20047;-80
2021/11/11 10:52:50;;;;;;;6.55;2.97;;;8.90;89.80;;;;;;5115361;28;20093;-79
2021/11/11 10:55:36;;;;;;;4.82;2.53;;;8.80;89.60;;;;;;5096884;28;20056;-81
2021/11/11 10:58:06;;;;;;;5.10;2.65;;;8.90;89.80;;;;;;5099884;28;20044;-82
2021/11/11 11:01:14;;;;;;;5.30;2.67;;;8.90;89.70;;;;;;5081138;28;20044;-83
2021/11/11 11:03:43;;;;;;;5.30;2.45;;;8.90;89.70;;;;;;5033511;28;20387;-79
2021/11/11 11:06:12;;;;;;;4.97;2.60;;;9.00;89.60;;;;;;5051946;28;20483;-78
2021/11/11 11:08:49;;;;;;;4.68;2.40;;;9.00;89.60;;;;;;5050163;28;20047;-83
2021/11/11 11:11:18;;;;;;;5.45;2.80;;;9.00;89.60;;;;;;5035981;28;20036;-83
2021/11/11 11:13:47;;;;;;;4.00;2.20;;;9.10;89.60;;;;;;5052495;28;20486;-81
2021/11/11 11:16:14;;;;;;;4.25;2.13;;;9.20;89.60;;;;;;5053093;28;20049;-80
2021/11/11 11:18:43;;;;;;;4.15;2.30;;;9.20;89.60;;;;;;5055881;28;20112;-81
2021/11/11 11:21:14;;;;;;;7.10;2.90;;;9.30;89.50;;;;;;5035476;28;20656;-79
2021/11/11 11:23:44;;;;;;;5.57;2.72;;;9.20;89.30;;;;;;5051301;28;20053;-80
2021/11/11 11:26:35;;;;;;;5.70;3.00;;;9.20;89.50;;;;;;5052036;28;20040;-81
2021/11/11 11:29:17;;;;;;;7.07;3.15;;;9.20;89.60;;;;;;5070574;28;20131;-80
2021/11/11 11:31:48;;;;;;;6.22;2.83;;;9.20;89.60;;;;;;5038721;28;20502;-83
2021/11/11 11:34:20;;;;;;;6.47;3.00;;;9.20;89.60;;;;;;5057699;28;20043;-81
2021/11/11 11:36:52;;;;;;;6.93;3.22;;;9.10;89.50;;;;;;5095791;28;20181;-81
2021/11/11 11:39:31;;;;;;;7.25;3.58;;;9.20;89.60;;;;;;5098799;28;20484;-82
2021/11/11 11:42:04;;;;;;;6.05;3.03;;;9.20;89.60;;;;;;5058400;28;20051;-84
2021/11/11 11:44:34;;;;;;;7.68;3.05;;;9.20;89.60;;;;;;5035339;28;20041;-85
2021/11/11 11:47:12;;;;;;;6.15;2.78;;;9.20;89.60;;;;;;5054575;28;20041;-84
2021/11/11 11:49:40;;;;;;;5.90;3.00;;;9.20;89.60;;;;;;5071782;28;20135;-84
2021/11/11 11:52:10;;;;;;;4.80;2.60;;;9.30;90.10;;;;;;5038109;28;20032;-85
2021/11/11 11:54:43;;;;;;;4.22;2.20;;;9.30;89.60;;;;;;5053467;28;20552;-84
2021/11/11 11:57:18;;;;;;;3.47;2.13;;;9.30;89.70;;;;;;5044691;28;20045;-84
2021/11/11 11:59:48;;;;;;;5.75;2.80;;;9.30;89.60;;;;;;5066836;28;20043;-85
2021/11/11 12:05:13;;;;;;;5.70;3.05;;;9.40;89.50;;;;;;5071664;28;20048;-83
2021/11/11 12:13:21;;;;;;;6.53;3.22;;;9.60;89.40;;;;;;5066898;28;20390;-83
2021/11/11 12:28:27;;;;;;;5.05;2.92;;;9.50;89.40;;;;;;5113374;28;20036;-79
2021/11/11 12:38:33;;;;;;;3.75;2.00;;;9.70;89.10;;;;;;5090939;28;20047;-82
2021/11/11 12:40:29;;;;;;;5.72;2.70;;;9.90;88.90;;;;;;5037274;28;20142;-82
2021/11/11 12:43:00;;;;;;;5.60;2.60;;;9.90;88.90;;;;;;5018335;28;20041;-83
2021/11/11 12:45:35;;;;;;;;;;;10.00;88.90;;;;;;5021057;28;20037;-84
2021/11/11 12:48:21;;;;;;;4.57;2.33;;;10.00;88.80;;;;;;5038861;28;19980;-81
2021/11/11 12:51:03;;;;;;;6.03;2.95;;;10.00;88.90;;;;;;5037240;28;20049;-82
2021/11/11 12:53:37;;;;;;;7.25;3.08;;;9.90;88.70;;;;;;5034319;28;20510;-85
2021/11/11 12:56:20;;;;;;;6.65;3.20;;;10.00;88.80;;;;;;4994552;28;20046;-83
2021/11/11 12:59:23;;;;;;;6.95;3.10;;;10.00;88.80;;;;;;4920215;29;20055;-87
2021/11/11 13:02:23;;;;;;;4.90;2.65;;;10.00;89.00;;;;;;4911258;29;20048;-85
2021/11/11 13:04:54;;;;;;;5.38;3.22;;;10.00;89.10;;;;;;4917573;29;20114;-83
2021/11/11 13:07:33;;;;;;;5.23;2.67;;;10.00;89.10;;;;;;4933501;29;20067;-80
2021/11/11 13:10:07;;;;;;;5.93;2.92;;;9.90;89.00;;;;;;4933712;29;20040;-83
2021/11/11 13:12:36;;;;;;;6.00;3.10;;;10.00;89.00;;;;;;4915468;29;20061;-82
2021/11/11 13:15:08;;;;;;;5.60;2.78;;;9.90;88.90;;;;;;4936285;29;20090;-80
2021/11/11 13:17:43;;;;;;;4.13;2.40;;;10.10;89.00;;;;;;4931653;29;20043;-79
2021/11/11 13:20:21;;;;;;;5.05;2.30;;;10.10;89.00;;;;;;4932882;29;20075;-80
2021/11/11 13:22:57;;;;;;;5.13;2.80;;;10.10;89.10;;;;;;4933196;29;20055;-80
2021/11/11 13:59:48;;;;;;;3.90;1.92;;;10.30;89.10;;;;;;5089052;28;20055;-80
2021/11/11 14:28:07;;;;;;;4.05;2.08;;;10.40;89.20;;;;;;5018408;28;20178;-82
2021/11/11 15:16:14;;;;;;;4.15;2.08;;;10.30;89.40;;;;;;4834250;29;20544;-84
2021/11/11 16:00:57;;;;;;;3.75;1.88;;;10.20;89.90;;;;;;5075050;28;20044;-79
2021/11/11 16:03:43;;;;;;;2.60;1.50;;;10.20;89.90;;;;;;5059966;28;20075;-80
2021/11/11 16:20:28;;;;;;;3.72;1.90;;;10.10;90.00;;;;;;5097572;28;20058;-79
2021/11/11 16:23:05;;;;;;;4.88;2.45;;;10.10;90.10;;;;;;5096881;28;20052;-79
2021/11/11 16:28:14;;;;;;;4.60;2.55;;;10.00;90.10;;;;;;5113481;28;20052;-79
2021/11/11 16:30:40;;;;;;;5.95;3.00;;;10.00;90.10;;;;;;5096455;28;20122;-79
2021/11/11 16:33:06;;;;;;;6.28;2.97;;;9.90;90.00;;;;;;5096282;28;20050;-79
2021/11/11 16:35:32;;;;;;;5.95;3.35;;;10.00;90.10;;;;;;5078155;28;20066;-78
2021/11/11 16:37:58;;;;;;;6.85;3.22;;;9.90;90.00;;;;;;5113238;28;20036;-78
2021/11/11 16:40:27;;;;;;;6.20;3.33;;;9.90;90.00;;;;;;5113363;28;20116;-77
2021/11/11 16:42:53;;;;;;;6.60;3.40;;;9.90;90.00;;;;;;5111391;28;20040;-77
2021/11/11 16:45:20;;;;;;;5.95;3.63;;;9.90;90.00;;;;;;5113725;28;20044;-78
2021/11/11 16:47:48;;;;;;;5.57;3.10;;;9.90;90.00;;;;;;5095120;28;20051;-77
2021/11/11 16:50:16;;;;;;;5.57;3.10;;;9.90;90.00;;;;;;5062401;28;20108;-78
2021/11/11 16:52:42;;;;;;;5.80;3.10;;;9.90;90.00;;;;;;5095064;28;20092;-77
2021/11/11 16:55:09;;;;;;;5.70;3.28;;;9.90;90.00;;;;;;5113037;28;20043;-78
2021/11/11 16:57:35;;;;;;;5.55;3.00;;;9.90;90.10;;;;;;5095237;28;20040;-78
2021/11/11 17:00:02;;;;;;;6.97;3.78;;;9.80;90.00;;;;;;5095569;28;20453;-78
2021/11/11 17:02:28;;;;;;;5.28;3.08;;;9.80;90.10;;;;;;5078408;28;20056;-78
2021/11/11 17:04:54;;;;;;;5.20;3.10;;;9.80;90.10;;;;;;5113702;28;20059;-79
2021/11/11 17:07:21;;;;;;;6.95;3.28;;;9.80;90.10;;;;;;5078698;28;20123;-76
2021/11/11 17:09:47;;;;;;;4.97;2.85;;;9.80;90.10;;;;;;5096184;28;20082;-77
2021/11/11 17:12:13;;;;;;;5.57;2.80;;;9.80;90.10;;;;;;5113720;28;20412;-77
2021/11/11 17:14:41;;;;;;;4.75;2.58;;;9.80;90.10;;;;;;5095329;28;20044;-77
2021/11/11 17:17:07;;;;;;;3.88;2.33;;;9.70;90.10;;;;;;5112964;28;20036;-77